Current | Forecast
Updated: 11:00 AM MSK on April 26, 2018
Observed at Vostochny, Russia
Temperature 45°F
Windchill 37°F
Humidity 93%
Dew Point 43°F
Wind South at 18 mph
Pressure 29.74 in (Falling)
Conditions Light Rain
Visibility 3.1 miles
UV 2 out of 16
Clouds Overcast (OVC) : 800 ft
Yesterday's Maximum 54°F
Yesterday's Minimum 45°F approx.
Yesterday's Heating Degree Days 16 approx.
Sunrise4:18 AM MSK
Sunset7:10 PM MSK
Moon Rise2:31 PM MSK
Moon Set3:28 AM MSK
Moon PhaseMoon Phase
Waxing Gibbous
Raw METARMETAR UWLW 260800Z 17008MPS 5000 -RA OVC008 07/06 Q1007 R20/120055 TEMPO 3100 -RA OVC007 RMK QFE750


Monday
. High: 73° F.
Tuesday
. High: 71° F.
Wednesday
. High: 59° F.
Thursday
. High: 59° F.
Friday
. High: 59° F.
Saturday
. High: 53° F.
Sunday
. High: 62° F.
Monday
. High: 68° F.

Units: English | Metric

Find the Weather for any City, State or Zipcode, or Country:

U.S. State List | Severe Weather | Tropical Storms | Ski Conditions
United States | Canada | Central America | South America | Asia | Europe | Australia | Africa | Islands

Weather Underground

© Copyright 2018
The Weather Company, LLC